Thunder radar more information blitzortung!


avis per Pluja more information rain snow radar


Visita la nostra xarxa de llocs de meteo:

Template documentation
and downloads

And another site



Rain From: 18-10-2018 10:00 Until: 16:59 warning for: Rain Level: Yellow info button

Pagina Historial Weather Underground text

Diari Resum May 27, 2016 Unitats:  Mètric    Imperial   Tant
« Previous Dia
SegĂźent Dia »
Diari Setmana Mensual Anual Personalitzada
  Maxima: Minima: Media:
Temperatura: -17.8 °C -10.5 °C -6.1 °C
Punt de rosada: -17.8 °C -12.7 °C -11.1 °C
Humitat: Humidity % 42 % 58 %
Wind Speed: 0 km/h 0 km/h 9 km/h
RĂ fegues de vent: 0 km/h - -
Vent:- - South
Pression baro: 0 hPa 34293.4 hPa -
Precipitacions: 0 mm    
Historical Graphs
 
 
Dades de taula per May 27, 2016
Temps Temperatura Punt de rosada Pression baro Vent Wind Speed RĂ fegues de vent Humitat Rainfall Rate (Hourly)
-17.8 °C -17.8 °C 0 hPa Calm     Humidity % 0 mm
00:00 -10.3 °C -12.4 °C 34327.3 hPa Calm     77 % 0 mm
00:04 -8.6 °C -12.1 °C 34361.1 hPa NNE 3.1 km/h   67 % 0 mm
00:09 -8.6 °C -12.1 °C 34361.1 hPa Calm     67 % 0 mm
00:10 -10.3 °C -12.7 °C 34327.3 hPa SW 2.6 km/h 5.1 km/h 75 % 0 mm
00:20 -10.3 °C -12.6 °C 34327.3 hPa WSW 2.6 km/h 2.6 km/h 76 % 0 mm
00:40 -10.3 °C -12.4 °C 34327.3 hPa WSW 2.6 km/h 2.6 km/h 78 % 0 mm
00:50 -10.3 °C -12.4 °C 34327.3 hPa Calm   2.6 km/h 78 % 0 mm
01:00 -10.4 °C -12.7 °C 34327.3 hPa NNE 5.1 km/h 5.1 km/h 76 % 0 mm
01:10 -10.5 °C -12.7 °C 34327.3 hPa WSW 2.6 km/h 2.6 km/h 77 % 0 mm
01:20 -10.5 °C -12.7 °C 34327.3 hPa SW 5.1 km/h 7.7 km/h 77 % 0 mm
01:30 -10.5 °C -12.7 °C 34327.3 hPa SW 2.6 km/h 5.1 km/h 77 % 0 mm
01:40 -10.4 °C -12.6 °C 34327.3 hPa WSW 2.6 km/h 5.1 km/h 77 % 0 mm
02:00 -10.2 °C -12.3 °C 34361.1 hPa Calm   2.6 km/h 78 % 0 mm
02:10 -10.1 °C -12.2 °C 34361.1 hPa Calm   2.6 km/h 78 % 0 mm
02:20 -10 °C -12.2 °C 34361.1 hPa Calm   2.6 km/h 77 % 0 mm
02:30 -9.9 °C -12.2 °C 34361.1 hPa Calm   2.6 km/h 77 % 0 mm
02:40 -9.8 °C -12 °C 34361.1 hPa Calm   5.1 km/h 77 % 0 mm
02:50 -9.6 °C -11.9 °C 34361.1 hPa SW 2.6 km/h 5.1 km/h 76 % 0 mm
03:00 -9.5 °C -11.8 °C 34361.1 hPa SW 2.6 km/h 5.1 km/h 76 % 0 mm
03:10 -9.4 °C -11.7 °C 34395 hPa Calm   5.1 km/h 76 % 0 mm
03:20 -9.3 °C -11.7 °C 34361.1 hPa WSW 2.6 km/h 2.6 km/h 75 % 0 mm
03:30 -9.2 °C -11.6 °C 34361.1 hPa Calm   2.6 km/h 75 % 0 mm
03:40 -9.1 °C -11.5 °C 34395 hPa Calm   5.1 km/h 75 % 0 mm
03:50 -8.9 °C -11.4 °C 34361.1 hPa SW 2.6 km/h 5.1 km/h 74 % 0 mm
04:00 -8.8 °C -11.3 °C 34361.1 hPa SW 2.6 km/h 5.1 km/h 74 % 0 mm
04:10 -8.6 °C -11.3 °C 34395 hPa Calm   7.7 km/h 73 % 0 mm
04:20 -8.2 °C -11.1 °C 34395 hPa Calm   2.6 km/h 71 % 0 mm
04:30 -7.8 °C -10.9 °C 34395 hPa Calm   5.1 km/h 70 % 0 mm
04:40 -7.8 °C -11.1 °C 34395 hPa Calm   5.1 km/h 68 % 0 mm
04:50 -7.8 °C -11.1 °C 34395 hPa SE 5.1 km/h 5.1 km/h 68 % 0 mm
05:00 -7.2 °C -10.8 °C 34395 hPa WSW 2.6 km/h 5.1 km/h 66 % 0 mm
05:10 -7.1 °C -10.9 °C 34395 hPa SSW 5.1 km/h 7.7 km/h 65 % 0 mm
05:20 -6.9 °C -10.9 °C 34395 hPa SE 2.6 km/h 7.7 km/h 63 % 0 mm
05:30 -6.6 °C -10.9 °C 34395 hPa ESE 2.6 km/h 5.1 km/h 61 % 0 mm
05:40 -6.6 °C -11.2 °C 34361.1 hPa SSW 2.6 km/h 10.3 km/h 59 % 0 mm
05:50 -6 °C -10.8 °C 34395 hPa SW 2.6 km/h 12.9 km/h 58 % 0 mm
06:10 -5.4 °C -10.8 °C 34361.1 hPa SSE 2.6 km/h 10.3 km/h 54 % 0 mm
06:20 -5.1 °C -10.7 °C 34395 hPa South 5.1 km/h 10.3 km/h 53 % 0 mm
06:30 -4.9 °C -10.7 °C 34395 hPa South 5.1 km/h 7.7 km/h 52 % 0 mm
06:40 -4.9 °C -10.9 °C 34361.1 hPa East 2.6 km/h 15.6 km/h 51 % 0 mm
06:50 -5.1 °C -11.2 °C 34361.1 hPa East 7.7 km/h 12.9 km/h 50 % 0 mm
07:00 -4.9 °C -11.2 °C 34361.1 hPa East 7.7 km/h 10.3 km/h 49 % 0 mm
07:10 -4.9 °C -11.2 °C 34361.1 hPa ENE 7.7 km/h 12.9 km/h 49 % 0 mm
07:20 -4.6 °C -11.1 °C 34361.1 hPa East 7.7 km/h 7.7 km/h 48 % 0 mm
07:30 -4.1 °C -10.6 °C 34361.1 hPa ESE 7.7 km/h 10.3 km/h 48 % 0 mm
07:40 -4.2 °C -10.9 °C 34361.1 hPa ENE 7.7 km/h 12.9 km/h 47 % 0 mm
07:50 -4.1 °C -11 °C 34361.1 hPa NE 7.7 km/h 15.6 km/h 46 % 0 mm
12:52 -4.2 °C -11.1 °C 34361.1 hPa WSW 9 km/h 9 km/h 46 % 0 mm
12:57 -3.8 °C -10.9 °C 34361.1 hPa NNE 12.2 km/h 12.2 km/h 45 % 0 mm
13:02 -3.8 °C -10.9 °C 34361.1 hPa SSW 6.3 km/h 6.3 km/h 45 % 0 mm
13:07 -3.6 °C -10.7 °C 34361.1 hPa SSE 9 km/h 9 km/h 45 % 0 mm
13:12 -3.2 °C -10.3 °C 34361.1 hPa ESE 6.3 km/h 6.3 km/h 45 % 0 mm
13:17 -3.2 °C -10.6 °C 34361.1 hPa ESE 15 km/h 15 km/h 44 % 0 mm
13:22 -3.4 °C -10.6 °C 34327.3 hPa SW 15 km/h 15 km/h 45 % 0 mm
13:27 -3.1 °C -10.3 °C 34327.3 hPa South 6 km/h 6 km/h 45 % 0 mm
13:32 -3 °C -10.4 °C 34327.3 hPa ESE 11.9 km/h 11.9 km/h 44 % 0 mm
13:37 -2.9 °C -10.3 °C 34327.3 hPa East 6 km/h 6 km/h 44 % 0 mm
13:42 -2.8 °C -10.4 °C 34327.3 hPa NE 9 km/h 9 km/h 43 % 0 mm
13:47 -2.8 °C -10.4 °C 34327.3 hPa SE 11.9 km/h 12.2 km/h 43 % 0 mm
13:52 -2.8 °C -10.2 °C 34327.3 hPa SE 15 km/h 15 km/h 44 % 0 mm
13:57 -2.7 °C -10.3 °C 34327.3 hPa West 6 km/h 6 km/h 43 % 0 mm
14:02 -2.6 °C -10.2 °C 34327.3 hPa NE 15 km/h 15 km/h 43 % 0 mm
14:07 -2.6 °C -10.4 °C 34327.3 hPa ESE 20.9 km/h 20.9 km/h 42 % 0 mm
14:12 -2.7 °C -10.4 °C 34327.3 hPa NE 15 km/h 15 km/h 42 % 0 mm
14:17 -2.6 °C -10.2 °C 34327.3 hPa East 22 km/h 22 km/h 43 % 0 mm
14:22 -2.7 °C -10.2 °C 34327.3 hPa NNE 11.9 km/h 11.9 km/h 43 % 0 mm
14:27 -2.8 °C -10.4 °C 34327.3 hPa ENE 26.9 km/h 26.9 km/h 43 % 0 mm
14:32 -2.7 °C -10.2 °C 34327.3 hPa East 20.9 km/h 20.9 km/h 43 % 0 mm
14:37 -2.6 °C -10.2 °C 34293.4 hPa ENE 15 km/h 15 km/h 43 % 0 mm
14:42 -2.6 °C -10.2 °C 34293.4 hPa SE 29.8 km/h 29.8 km/h 43 % 0 mm
14:47 -2.8 °C -10.2 °C 34293.4 hPa ESE 20.9 km/h 20.9 km/h 44 % 0 mm
14:52 -2.9 °C -10.1 °C 34327.3 hPa ESE 20.9 km/h 20.9 km/h 45 % 0 mm
14:57 -2.8 °C -10.1 °C 34327.3 hPa West 26.9 km/h 26.9 km/h 45 % 0 mm
15:02 -2.3 °C -9.6 °C 34327.3 hPa WSW 20.9 km/h 20.9 km/h 45 % 0 mm
15:07 -2.1 °C -9.3 °C 34327.3 hPa SW 20.3 km/h 20.3 km/h 45 % 0 mm
15:12 -2.2 °C -9.5 °C 34327.3 hPa SSW 26.9 km/h 26.9 km/h 45 % 0 mm
15:17 -2.4 °C -9.7 °C 34327.3 hPa SSW 20.9 km/h 20.9 km/h 45 % 0 mm
15:22 -2.4 °C -9.7 °C 34327.3 hPa SW 22.5 km/h 22.5 km/h 45 % 0 mm
15:27 -2.7 °C -9.9 °C 34327.3 hPa WSW 17.4 km/h 17.4 km/h 45 % 0 mm
15:32 -2.3 °C -9.8 °C 34327.3 hPa SSW 20.9 km/h 20.9 km/h 44 % 0 mm
15:37 -2.6 °C -9.9 °C 34327.3 hPa WSW 17.9 km/h 17.9 km/h 44 % 0 mm
15:42 -2.6 °C -9.9 °C 34327.3 hPa SW 20.9 km/h 20.9 km/h 44 % 0 mm
15:47 -2.6 °C -9.9 °C 34327.3 hPa NNE 14.5 km/h 14.5 km/h 44 % 0 mm
15:52 -2.8 °C -10.2 °C 34327.3 hPa SSW 15 km/h 15 km/h 44 % 0 mm
15:57 -2.4 °C -9.9 °C 34327.3 hPa WSW 11.9 km/h 11.9 km/h 44 % 0 mm
16:02 -2.4 °C -9.8 °C 34327.3 hPa ESE 8.5 km/h 8.5 km/h 44 % 0 mm
16:07 -2.6 °C -9.9 °C 34327.3 hPa WSW 15 km/h 15 km/h 44 % 0 mm
16:12 -2.5 °C -9.9 °C 34327.3 hPa WSW 11.1 km/h 11.1 km/h 44 % 0 mm
16:17 -2.6 °C -10.2 °C 34327.3 hPa SSW 15 km/h 15 km/h 43 % 0 mm
16:23 -2.6 °C -10.2 °C 34327.3 hPa WSW 11.9 km/h 11.9 km/h 43 % 0 mm
16:28 -2.9 °C -10.3 °C 34327.3 hPa ESE 17.4 km/h 17.4 km/h 44 % 0 mm
16:33 -3.1 °C -10.2 °C 34327.3 hPa SSE 9.3 km/h 9.3 km/h 45 % 0 mm
16:38 -3 °C -10.2 °C 34327.3 hPa SW 15 km/h 15 km/h 45 % 0 mm
16:43 -3.2 °C -10.4 °C 34327.3 hPa NE 9 km/h 9 km/h 45 % 0 mm
16:48 -3.1 °C -10.3 °C 34327.3 hPa SW 7.6 km/h 7.6 km/h 45 % 0 mm
16:58 -2.6 °C -10 °C 34327.3 hPa SW 15 km/h 15 km/h 44 % 0 mm
17:03 -2.7 °C -10.2 °C 34327.3 hPa WSW 11.9 km/h 11.9 km/h 43 % 0 mm
17:08 -2.7 °C -10.3 °C 34327.3 hPa SSW 15 km/h 15 km/h 43 % 0 mm
17:13 -2.7 °C -10.3 °C 34327.3 hPa WSW 11.9 km/h 11.9 km/h 43 % 0 mm
17:18 -2.7 °C -10.3 °C 34327.3 hPa West 15 km/h 15 km/h 43 % 0 mm
17:23 -2.7 °C -10.3 °C 34327.3 hPa SW 6.3 km/h 6.3 km/h 43 % 0 mm
17:28 -2.7 °C -10.3 °C 34327.3 hPa NW 15 km/h 15.3 km/h 43 % 0 mm
17:33 -2.7 °C -10.2 °C 34327.3 hPa WSW 11.9 km/h 11.9 km/h 43 % 0 mm
17:38 -2.9 °C -10.3 °C 34327.3 hPa SW 9 km/h 9 km/h 44 % 0 mm
17:43 -2.9 °C -10.4 °C 34327.3 hPa NE 11.9 km/h 11.9 km/h 43 % 0 mm
17:48 -3.5 °C -10.8 °C 34327.3 hPa WNW 11.9 km/h 11.9 km/h 44 % 0 mm
17:53 -3.5 °C -10.8 °C 34327.3 hPa ESE 12.2 km/h 12.2 km/h 44 % 0 mm
17:58 -3.5 °C -10.8 °C 34327.3 hPa East 15 km/h 15 km/h 44 % 0 mm
18:03 -3.8 °C -10.9 °C 34327.3 hPa ENE 8.5 km/h 8.5 km/h 45 % 0 mm
18:08 -3.9 °C -11 °C 34327.3 hPa East 15 km/h 15 km/h 45 % 0 mm
18:13 -4.1 °C -11 °C 34327.3 hPa NE 16.1 km/h 16.1 km/h 46 % 0 mm
18:18 -4.2 °C -11.1 °C 34327.3 hPa East 17.9 km/h 17.9 km/h 46 % 0 mm
18:23 -4.2 °C -11.1 °C 34327.3 hPa East 11.9 km/h 11.9 km/h 46 % 0 mm
18:28 -4.2 °C -10.9 °C 34327.3 hPa ESE 20.3 km/h 20.3 km/h 47 % 0 mm
18:33 -4.5 °C -11.2 °C 34293.4 hPa SE 20.3 km/h 20.3 km/h 47 % 0 mm
18:43 -4.7 °C -11.2 °C 34293.4 hPa ENE 11.9 km/h 11.9 km/h 48 % 0 mm
18:48 -4.7 °C -11.2 °C 34327.3 hPa East 17.9 km/h 17.9 km/h 48 % 0 mm
18:53 -4.8 °C -11.2 °C 34327.3 hPa ESE 20.9 km/h 20.9 km/h 48 % 0 mm
18:58 -4.8 °C -11.3 °C 34327.3 hPa East 20.9 km/h 20.9 km/h 48 % 0 mm
19:08 -4.5 °C -11 °C 34327.3 hPa East 6.3 km/h 6.3 km/h 48 % 0 mm
19:10 -8.7 °C -10.9 °C 34361.1 hPa SW 5.1 km/h 7.7 km/h 77 % 0 mm
19:13 -4.7 °C -11.2 °C 34327.3 hPa ESE 8 km/h 8 km/h 48 % 0 mm
19:18 -4.8 °C -11.2 °C 34327.3 hPa East 9 km/h 9 km/h 48 % 0 mm
19:20 -8.7 °C -10.7 °C 34395 hPa WSW 7.7 km/h 10.3 km/h 79 % 0 mm
19:23 -4.6 °C -11.1 °C 34327.3 hPa South 9 km/h 9 km/h 48 % 0 mm
19:28 -4.6 °C -11.1 °C 34327.3 hPa ENE 6 km/h 6 km/h 48 % 0 mm
19:30 -8.8 °C -10.8 °C 34395 hPa SW 5.1 km/h 12.9 km/h 79 % 0 mm
19:33 -4.6 °C -11.1 °C 34327.3 hPa SW 6 km/h 6 km/h 48 % 0 mm
19:38 -4.4 °C -11.1 °C 34327.3 hPa SSW 12.7 km/h 12.7 km/h 47 % 0 mm
19:40 -8.8 °C -10.9 °C 34395 hPa SW 5.1 km/h 10.3 km/h 79 % 0 mm
19:43 -4.3 °C -11 °C 34327.3 hPa West 9 km/h 9 km/h 47 % 0 mm
19:48 -4.3 °C -11 °C 34327.3 hPa WSW 11.9 km/h 11.9 km/h 47 % 0 mm
19:50 -8.9 °C -10.8 °C 34395 hPa SW 5.1 km/h 7.7 km/h 80 % 0 mm
19:53 -4.5 °C -11.3 °C 34327.3 hPa SW 17.9 km/h 17.9 km/h 46 % 0 mm
19:58 -4.6 °C -11.2 °C 34327.3 hPa SW 17.9 km/h 17.9 km/h 47 % 0 mm
20:03 -4.7 °C -11.3 °C 34327.3 hPa WSW 9.8 km/h 9.8 km/h 47 % 0 mm
20:08 -4.8 °C -11.6 °C 34327.3 hPa WSW 17.9 km/h 17.9 km/h 46 % 0 mm
20:10 -9.1 °C -10.9 °C 34395 hPa SW 2.6 km/h 5.1 km/h 81 % 0 mm
20:13 -4.8 °C -11.5 °C 34327.3 hPa SW 17.9 km/h 17.9 km/h 47 % 0 mm
20:18 -4.9 °C -11.6 °C 34327.3 hPa SW 11.9 km/h 11.9 km/h 47 % 0 mm
20:20 -9.1 °C -11 °C 34395 hPa SW 5.1 km/h 7.7 km/h 80 % 0 mm
20:23 -5 °C -11.6 °C 34327.3 hPa SW 15 km/h 15 km/h 47 % 0 mm
20:28 -5.1 °C -11.5 °C 34327.3 hPa SW 9 km/h 9 km/h 48 % 0 mm
20:30 -9.1 °C -10.9 °C 34395 hPa SW 2.6 km/h 5.1 km/h 81 % 0 mm
20:33 -5.2 °C -11.6 °C 34361.1 hPa SSW 6 km/h 6 km/h 48 % 0 mm
20:38 -5.3 °C -11.7 °C 34361.1 hPa SW 6 km/h 6.8 km/h 48 % 0 mm
20:40 -9.2 °C -10.9 °C 34395 hPa SW 2.6 km/h 7.7 km/h 81 % 0 mm
20:43 -5.4 °C -11.6 °C 34361.1 hPa NW 6 km/h 6 km/h 49 % 0 mm
20:48 -5.4 °C -11.7 °C 34361.1 hPa SW 6 km/h 6 km/h 49 % 0 mm
20:50 -9.1 °C -10.9 °C 34395 hPa SW 2.6 km/h 5.1 km/h 81 % 0 mm
20:53 -5.6 °C -11.8 °C 34361.1 hPa SW 9 km/h 9 km/h 49 % 0 mm
20:58 -5.7 °C -11.7 °C 34361.1 hPa SSW 6.3 km/h 6.8 km/h 50 % 0 mm
21:00 -9.2 °C -10.9 °C 34395 hPa WSW 2.6 km/h 7.7 km/h 81 % 0 mm
21:03 -5.8 °C -11.9 °C 34361.1 hPa WSW 6 km/h 6 km/h 50 % 0 mm
21:08 -5.9 °C -12 °C 34361.1 hPa SW 11.9 km/h 11.9 km/h 50 % 0 mm
21:13 -6.1 °C -11.9 °C 34361.1 hPa SW 9.3 km/h 9.3 km/h 51 % 0 mm
21:18 -6.2 °C -11.9 °C 34327.3 hPa SW 9 km/h 9 km/h 52 % 0 mm
21:20 -9.2 °C -10.8 °C 34361.1 hPa WSW 2.6 km/h 5.1 km/h 83 % 0 mm
21:23 -6.3 °C -11.9 °C 34327.3 hPa SSW 10.3 km/h 10.3 km/h 52 % 0 mm
21:30 -9.3 °C -11 °C 34361.1 hPa NNW 2.6 km/h 2.6 km/h 82 % 0 mm
21:33 -6.5 °C -12.2 °C 34327.3 hPa SW 14.5 km/h 14.5 km/h 52 % 0 mm
21:38 -6.7 °C -12.2 °C 34327.3 hPa SW 17.9 km/h 17.9 km/h 53 % 0 mm
21:40 -9.3 °C -11.2 °C 34361.1 hPa NW 2.6 km/h 7.7 km/h 81 % 0 mm
21:43 -6.8 °C -12.2 °C 34327.3 hPa SW 6.3 km/h 6.3 km/h 54 % 0 mm
21:48 -6.9 °C -12.1 °C 34327.3 hPa WSW 11.9 km/h 11.9 km/h 55 % 0 mm
21:50 -9.3 °C -10.9 °C 34361.1 hPa Calm     83 % 0 mm
21:53 -7 °C -11.7 °C 34327.3 hPa WSW 11.9 km/h 11.9 km/h 58 % 0 mm
21:58 -7.1 °C -11.7 °C 34327.3 hPa WSW 11.9 km/h 11.9 km/h 59 % 0 mm
22:00 -9.3 °C -10.9 °C 34361.1 hPa Calm     83 % 0 mm
22:04 -7.2 °C -11.6 °C 34327.3 hPa WSW 9 km/h 9 km/h 60 % 0 mm
22:09 -7.3 °C -11.4 °C 34327.3 hPa WSW 9 km/h 9 km/h 62 % 0 mm
22:10 -9.3 °C -11 °C 34327.3 hPa Calm   5.1 km/h 82 % 0 mm
22:14 -7.3 °C -11.3 °C 34327.3 hPa WSW 11.9 km/h 11.9 km/h 63 % 0 mm
22:19 -7.4 °C -11.2 °C 34327.3 hPa WSW 15 km/h 15 km/h 65 % 0 mm
22:20 -9.3 °C -11 °C 34327.3 hPa Calm   5.1 km/h 82 % 0 mm
22:24 -7.6 °C -11.3 °C 34327.3 hPa SSW 9 km/h 9 km/h 65 % 0 mm
22:29 -7.6 °C -11.3 °C 34327.3 hPa SW 11.9 km/h 11.9 km/h 65 % 0 mm
22:30 -9.3 °C -11 °C 34327.3 hPa SSW 2.6 km/h 5.1 km/h 82 % 0 mm
22:34 -7.7 °C -11.3 °C 34327.3 hPa SW 9.8 km/h 9.8 km/h 66 % 0 mm
22:39 -7.7 °C -11.2 °C 34327.3 hPa West 9.3 km/h 9.3 km/h 67 % 0 mm
22:40 -9.3 °C -11 °C 34361.1 hPa Calm   5.1 km/h 82 % 0 mm
22:44 -7.8 °C -11.2 °C 34327.3 hPa SW 8 km/h 8 km/h 67 % 0 mm
22:49 -7.9 °C -11.2 °C 34327.3 hPa SW 9 km/h 9 km/h 68 % 0 mm
22:50 -9.4 °C -11.1 °C 34327.3 hPa Calm   5.1 km/h 82 % 0 mm
22:54 -7.9 °C -11.2 °C 34327.3 hPa West 9 km/h 9 km/h 68 % 0 mm
23:00 -9.6 °C -11.2 °C 34327.3 hPa Calm   2.6 km/h 82 % 0 mm
23:09 -8.1 °C -11.3 °C 34361.1 hPa WSW 9.3 km/h 9.3 km/h 69 % 0 mm
23:10 -9.7 °C -11.4 °C 34327.3 hPa SW 2.6 km/h 5.1 km/h 81 % 0 mm
23:14 -8.1 °C -11.2 °C 34361.1 hPa West 15 km/h 15 km/h 70 % 0 mm
23:19 -8.2 °C -11.1 °C 34361.1 hPa South 9 km/h 9 km/h 72 % 0 mm
23:20 -9.7 °C -11.3 °C 34327.3 hPa Calm   2.6 km/h 83 % 0 mm
23:24 -8.3 °C -11.1 °C 34361.1 hPa South 15 km/h 15 km/h 73 % 0 mm
23:29 -8.3 °C -10.9 °C 34361.1 hPa SW 9 km/h 9 km/h 74 % 0 mm
23:30 -9.6 °C -11.2 °C 34327.3 hPa Calm     83 % 0 mm
23:34 -8.4 °C -10.9 °C 34395 hPa SW 9 km/h 9 km/h 75 % 0 mm
23:39 -8.4 °C -10.9 °C 34395 hPa SSW 9 km/h 9 km/h 75 % 0 mm
23:40 -9.7 °C -11.3 °C 34327.3 hPa Calm   2.6 km/h 83 % 0 mm
23:44 -8.5 °C -10.9 °C 34395 hPa SW 9 km/h 9 km/h 76 % 0 mm
23:49 -8.5 °C -10.9 °C 34395 hPa West 6 km/h 7.6 km/h 76 % 0 mm
23:50 -9.7 °C -11.3 °C 34327.3 hPa SW 2.6 km/h 2.6 km/h 82 % 0 mm
23:54 -8.6 °C -10.9 °C 34395 hPa SW 7.6 km/h 7.6 km/h 76 % 0 mm
23:59 -8.6 °C -10.9 °C 34395 hPa SW 6.8 km/h 6.8 km/h 76 % 0 mm
Meteo Sesrovires
Elogis d' Weather Underground - 1.5 mb

Guio original per  Jim McMurry - jmcmurry@mwt.net Adaptat per a la plantilla per  Wim van der Kuil - Leuven-Template.eu

Trobareu la nostra informacio del temps tambe a:

Weather Underground

AWEKAS